Portada
METAR-TAF:

METAR-TAF

Aeropuertos :

Aeropuerto Internacional de Chongqing-Jiangbei

Chongqing, China

latitud: 29-31N, longitud: 106-29E, altitud: 351 m

Observación

El informe se hizo hace 36 minutos, a las 16:00 UTC
Viento calma
Temperatura 10°C
Humedad 82%
Presión 1021 hPa
Visibilidad: 4000 m
neblina

METAR: ZUCK 111600Z 00000MPS 4000 BR NSC 10/07 Q1021 NOSIG

Hora: 00:36 (16:36 UTC)

Pronóstico

El informe se hizo hace 7 horas y 35 minutos, a las 09:01 UTC
Pronóstico válido del 11 a las 12 UTC al 12 a las 12 UTC
Viento 6 kt del norte-noreste
Visibilidad: 3500 m
Cielo cubierto a una altura de 4000 ft
neblina
Evolucionando progresivamente
del 11 a las 21 UTC al 11 a las 22 UTC
Visibilidad: 2400 m
lluvia ligera, neblina
Evolucionando progresivamente
del 12 a las 03 UTC al 12 a las 04 UTC
Visibilidad: 3500 m
neblina

TAF: ZUCK 110901Z 1112/1212 03003MPS 3500 BR OVC040 TX12/1207Z TN07/1122Z BECMG 1121/1122 2400 -RA BR BECMG 1203/1204 3500 BR

Observaciones y pronósticos meteorológicos de más de 4000 aeropuertos (mensajes METAR y TAF).

Los puntos amarillos y rojos representan las estaciones disponibles.

Ponga el ratón en el punto deseado para ver el nombre de la estación.

Haga clic para ver las observaciones y los pronósticos meteorológicos.

Para cambiar el mapa : haga clic en los botones verdes con una cruz de color negro para hacer un zoom, en el botón verde con un guión para alejar o en las flechas verdes para mapas adyacentes.


METAR-TAF: